Carolina Forest, South Carolina
Current Conditions -  °F | °C
As of 11:45 AM on Monday 22 Dec 2014 (Local Time) from KMYR Reporting Station
Haze Haze  
Wind Chill:   Ceiling: 500
Heat Index:   Visibility: 4mi
Dew Point:   Wind: 9mph
Humidity: 87%   Direction: 340°NNW
Pressure: 30.06"   Gusts: NA
Location:  33.7109°N, 78.9964°W
Report Text: KMYR 221645Z 34008KT 4SM BR OVC005 08/06 A3006
Loading
Personal Weather Stations






























Interactive Weather Map New forecast layout! Learn more

10-Day Weather Forecast

Advertisements
Track Severe Weather on mobile